sensor_id;sensor_type;location;lat;lon;timestamp;P1;durP1;ratioP1;P2;durP2;ratioP2
37157;SDS011;23050;51.776;22.638;2022-09-27T12:16:30;5.97;;;1.20;;
37157;SDS011;23050;51.776;22.638;2022-09-27T12:18:57;0.50;;;0.50;;
37157;SDS011;23050;51.776;22.638;2022-09-27T12:21:25;0.38;;;0.38;;
37157;SDS011;23050;51.776;22.638;2022-09-27T12:23:55;0.28;;;0.28;;
37157;SDS011;23050;51.776;22.638;2022-09-27T12:31:42;0.65;;;0.55;;
37157;SDS011;23050;51.776;22.638;2022-09-27T12:34:16;0.57;;;0.55;;
37157;SDS011;23050;51.776;22.638;2022-09-27T12:37:04;0.60;;;0.60;;
37157;SDS011;23050;51.776;22.638;2022-09-27T12:42:30;0.52;;;0.52;;
37157;SDS011;23050;51.776;22.638;2022-09-27T12:45:01;0.52;;;0.52;;
37157;SDS011;23050;51.776;22.638;2022-09-27T12:53:46;3.42;;;1.30;;
37157;SDS011;23050;51.776;22.638;2022-09-27T12:59:05;1.50;;;1.40;;
37157;SDS011;23050;51.776;22.638;2022-09-27T13:08:07;0.45;;;0.45;;
37157;SDS011;23050;51.776;22.638;2022-09-27T13:13:33;0.40;;;0.40;;
37157;SDS011;23050;51.776;22.638;2022-09-27T13:16:01;0.25;;;0.25;;
37157;SDS011;23050;51.776;22.638;2022-09-27T13:21:00;1.33;;;0.85;;
37157;SDS011;23050;51.776;22.638;2022-09-27T13:33:28;0.63;;;0.63;;
37157;SDS011;23050;51.776;22.638;2022-09-27T13:46:33;0.40;;;0.40;;
37157;SDS011;23050;51.776;22.638;2022-09-27T13:51:48;0.22;;;0.22;;
37157;SDS011;23050;51.776;22.638;2022-09-27T13:57:37;0.40;;;0.40;;
37157;SDS011;23050;51.776;22.638;2022-09-27T14:00:23;0.63;;;0.43;;
37157;SDS011;23050;51.776;22.638;2022-09-27T14:03:32;0.80;;;0.50;;
37157;SDS011;23050;51.776;22.638;2022-09-27T14:06:13;1.40;;;0.73;;
37157;SDS011;23050;51.776;22.638;2022-09-27T14:08:44;0.50;;;0.50;;
37157;SDS011;23050;51.776;22.638;2022-09-27T14:11:14;1.60;;;1.30;;
37157;SDS011;23050;51.776;22.638;2022-09-27T14:13:48;2.67;;;1.52;;
37157;SDS011;23050;51.776;22.638;2022-09-27T14:16:14;7.43;;;4.22;;
37157;SDS011;23050;51.776;22.638;2022-09-27T14:18:43;11.75;;;2.72;;
37157;SDS011;23050;51.776;22.638;2022-09-27T14:23:50;0.70;;;0.70;;
37157;SDS011;23050;51.776;22.638;2022-09-27T14:26:26;4.93;;;2.15;;
37157;SDS011;23050;51.776;22.638;2022-09-27T14:29:20;0.80;;;0.80;;
37157;SDS011;23050;51.776;22.638;2022-09-27T14:32:00;0.35;;;0.35;;
37157;SDS011;23050;51.776;22.638;2022-09-27T14:34:28;5.68;;;1.65;;
37157;SDS011;23050;51.776;22.638;2022-09-27T14:36:53;0.50;;;0.50;;
37157;SDS011;23050;51.776;22.638;2022-09-27T14:39:38;0.75;;;0.75;;
37157;SDS011;23050;51.776;22.638;2022-09-27T14:42:16;2.83;;;2.58;;
37157;SDS011;23050;51.776;22.638;2022-09-27T14:44:47;2.05;;;1.30;;
37157;SDS011;23050;51.776;22.638;2022-09-27T14:47:24;1.75;;;1.45;;
37157;SDS011;23050;51.776;22.638;2022-09-27T14:52:23;0.82;;;0.70;;
37157;SDS011;23050;51.776;22.638;2022-09-27T14:54:57;0.52;;;0.43;;
37157;SDS011;23050;51.776;22.638;2022-09-27T14:57:30;3.53;;;1.48;;
37157;SDS011;23050;51.776;22.638;2022-09-27T14:59:58;1.10;;;1.08;;
37157;SDS011;23050;51.776;22.638;2022-09-27T15:02:40;0.88;;;0.80;;
37157;SDS011;23050;51.776;22.638;2022-09-27T15:05:17;1.67;;;1.08;;
37157;SDS011;23050;51.776;22.638;2022-09-27T15:07:45;1.45;;;1.38;;
37157;SDS011;23050;51.776;22.638;2022-09-27T15:10:13;0.93;;;0.90;;
37157;SDS011;23050;51.776;22.638;2022-09-27T15:12:41;1.15;;;0.80;;
37157;SDS011;23050;51.776;22.638;2022-09-27T15:17:43;1.23;;;0.98;;
37157;SDS011;23050;51.776;22.638;2022-09-27T15:20:21;1.40;;;1.23;;
37157;SDS011;23050;51.776;22.638;2022-09-27T15:22:52;0.65;;;0.65;;
37157;SDS011;23050;51.776;22.638;2022-09-27T15:28:05;1.08;;;1.05;;
37157;SDS011;23050;51.776;22.638;2022-09-27T15:30:45;1.58;;;1.08;;
37157;SDS011;23050;51.776;22.638;2022-09-27T15:33:22;0.43;;;0.43;;
37157;SDS011;23050;51.776;22.638;2022-09-27T15:35:56;2.67;;;1.52;;
37157;SDS011;23050;51.776;22.638;2022-09-27T15:43:26;1.48;;;1.27;;
37157;SDS011;23050;51.776;22.638;2022-09-27T15:45:55;3.72;;;3.00;;
37157;SDS011;23050;51.776;22.638;2022-09-27T15:48:24;1.38;;;1.20;;
37157;SDS011;23050;51.776;22.638;2022-09-27T15:50:51;1.67;;;1.58;;
37157;SDS011;23050;51.776;22.638;2022-09-27T15:53:38;2.03;;;1.60;;
37157;SDS011;23050;51.776;22.638;2022-09-27T15:56:06;3.15;;;2.35;;
37157;SDS011;23050;51.776;22.638;2022-09-27T15:58:32;4.28;;;2.53;;
37157;SDS011;23050;51.776;22.638;2022-09-27T16:00:59;1.23;;;1.13;;
37157;SDS011;23050;51.776;22.638;2022-09-27T16:03:27;5.28;;;4.82;;
37157;SDS011;23050;51.776;22.638;2022-09-27T16:05:56;3.03;;;2.42;;
37157;SDS011;23050;51.776;22.638;2022-09-27T16:08:23;2.40;;;2.20;;
37157;SDS011;23050;51.776;22.638;2022-09-27T16:10:51;6.20;;;4.22;;
37157;SDS011;23050;51.776;22.638;2022-09-27T16:13:22;1.80;;;1.65;;
37157;SDS011;23050;51.776;22.638;2022-09-27T16:15:48;3.90;;;2.53;;
37157;SDS011;23050;51.776;22.638;2022-09-27T16:18:14;1.75;;;1.55;;
37157;SDS011;23050;51.776;22.638;2022-09-27T16:20:41;3.30;;;2.50;;
37157;SDS011;23050;51.776;22.638;2022-09-27T16:23:07;3.33;;;2.28;;
37157;SDS011;23050;51.776;22.638;2022-09-27T16:25:32;3.13;;;2.30;;
37157;SDS011;23050;51.776;22.638;2022-09-27T16:27:58;7.50;;;3.25;;
37157;SDS011;23050;51.776;22.638;2022-09-27T16:30:25;3.78;;;2.88;;
37157;SDS011;23050;51.776;22.638;2022-09-27T16:32:51;5.75;;;3.63;;
37157;SDS011;23050;51.776;22.638;2022-09-27T16:35:19;3.60;;;2.53;;
37157;SDS011;23050;51.776;22.638;2022-09-27T16:37:49;3.60;;;2.08;;
37157;SDS011;23050;51.776;22.638;2022-09-27T16:40:16;3.30;;;2.53;;
37157;SDS011;23050;51.776;22.638;2022-09-27T16:42:43;15.38;;;11.95;;
37157;SDS011;23050;51.776;22.638;2022-09-27T16:45:11;19.23;;;17.03;;
37157;SDS011;23050;51.776;22.638;2022-09-27T16:47:40;11.43;;;8.52;;
37157;SDS011;23050;51.776;22.638;2022-09-27T16:50:11;3.88;;;3.50;;
37157;SDS011;23050;51.776;22.638;2022-09-27T16:52:56;3.20;;;2.50;;
37157;SDS011;23050;51.776;22.638;2022-09-27T16:55:24;1.73;;;1.63;;
37157;SDS011;23050;51.776;22.638;2022-09-27T16:57:52;3.00;;;1.57;;
37157;SDS011;23050;51.776;22.638;2022-09-27T17:00:18;2.58;;;2.35;;
37157;SDS011;23050;51.776;22.638;2022-09-27T17:02:47;2.65;;;2.38;;
37157;SDS011;23050;51.776;22.638;2022-09-27T17:05:14;7.38;;;4.30;;
37157;SDS011;23050;51.776;22.638;2022-09-27T17:07:40;6.22;;;5.63;;
37157;SDS011;23050;51.776;22.638;2022-09-27T17:10:06;6.70;;;6.05;;
37157;SDS011;23050;51.776;22.638;2022-09-27T17:12:32;20.40;;;9.43;;
37157;SDS011;23050;51.776;22.638;2022-09-27T17:14:58;9.85;;;7.90;;
37157;SDS011;23050;51.776;22.638;2022-09-27T17:17:25;11.10;;;7.00;;
37157;SDS011;23050;51.776;22.638;2022-09-27T17:19:51;6.57;;;5.78;;
37157;SDS011;23050;51.776;22.638;2022-09-27T17:22:17;5.28;;;4.47;;
37157;SDS011;23050;51.776;22.638;2022-09-27T17:24:42;8.73;;;6.22;;
37157;SDS011;23050;51.776;22.638;2022-09-27T17:27:08;3.63;;;2.45;;
37157;SDS011;23050;51.776;22.638;2022-09-27T17:29:34;4.90;;;4.47;;
37157;SDS011;23050;51.776;22.638;2022-09-27T17:32:01;7.90;;;5.57;;
37157;SDS011;23050;51.776;22.638;2022-09-27T17:34:27;6.95;;;4.18;;
37157;SDS011;23050;51.776;22.638;2022-09-27T17:36:53;14.10;;;8.95;;
37157;SDS011;23050;51.776;22.638;2022-09-27T17:39:19;17.88;;;10.40;;
37157;SDS011;23050;51.776;22.638;2022-09-27T17:41:49;8.48;;;6.05;;
37157;SDS011;23050;51.776;22.638;2022-09-27T17:44:15;2.60;;;2.40;;
37157;SDS011;23050;51.776;22.638;2022-09-27T17:46:42;6.65;;;4.60;;
37157;SDS011;23050;51.776;22.638;2022-09-27T17:49:09;6.85;;;3.33;;
37157;SDS011;23050;51.776;22.638;2022-09-27T17:51:54;3.75;;;3.45;;
37157;SDS011;23050;51.776;22.638;2022-09-27T17:54:21;2.33;;;2.13;;
37157;SDS011;23050;51.776;22.638;2022-09-27T17:56:48;17.20;;;4.20;;
37157;SDS011;23050;51.776;22.638;2022-09-27T17:59:14;4.47;;;3.05;;
37157;SDS011;23050;51.776;22.638;2022-09-27T18:01:41;3.13;;;2.55;;
37157;SDS011;23050;51.776;22.638;2022-09-27T18:04:09;1.52;;;1.48;;
37157;SDS011;23050;51.776;22.638;2022-09-27T18:06:38;4.88;;;3.05;;
37157;SDS011;23050;51.776;22.638;2022-09-27T18:09:05;2.88;;;2.67;;
37157;SDS011;23050;51.776;22.638;2022-09-27T18:11:33;5.25;;;2.85;;
37157;SDS011;23050;51.776;22.638;2022-09-27T18:13:59;9.75;;;3.67;;
37157;SDS011;23050;51.776;22.638;2022-09-27T18:16:26;4.00;;;3.55;;
37157;SDS011;23050;51.776;22.638;2022-09-27T18:18:58;5.57;;;5.07;;
37157;SDS011;23050;51.776;22.638;2022-09-27T18:21:25;4.53;;;3.92;;
37157;SDS011;23050;51.776;22.638;2022-09-27T18:23:52;3.13;;;2.88;;
37157;SDS011;23050;51.776;22.638;2022-09-27T18:28:49;6.13;;;4.50;;
37157;SDS011;23050;51.776;22.638;2022-09-27T18:31:17;3.00;;;2.75;;
37157;SDS011;23050;51.776;22.638;2022-09-27T18:33:44;8.82;;;3.40;;
37157;SDS011;23050;51.776;22.638;2022-09-27T18:36:17;4.47;;;3.78;;
37157;SDS011;23050;51.776;22.638;2022-09-27T18:38:45;3.05;;;2.85;;
37157;SDS011;23050;51.776;22.638;2022-09-27T18:41:18;3.05;;;2.85;;
37157;SDS011;23050;51.776;22.638;2022-09-27T18:43:45;6.35;;;3.58;;
37157;SDS011;23050;51.776;22.638;2022-09-27T18:46:13;4.63;;;3.53;;
37157;SDS011;23050;51.776;22.638;2022-09-27T18:48:45;4.40;;;4.00;;
37157;SDS011;23050;51.776;22.638;2022-09-27T18:51:13;5.05;;;4.03;;
37157;SDS011;23050;51.776;22.638;2022-09-27T18:53:41;5.00;;;4.55;;
37157;SDS011;23050;51.776;22.638;2022-09-27T18:56:09;6.28;;;4.90;;
37157;SDS011;23050;51.776;22.638;2022-09-27T18:58:37;4.55;;;4.15;;
37157;SDS011;23050;51.776;22.638;2022-09-27T19:01:06;7.07;;;5.13;;
37157;SDS011;23050;51.776;22.638;2022-09-27T19:03:35;9.73;;;5.57;;
37157;SDS011;23050;51.776;22.638;2022-09-27T19:06:03;2.30;;;2.10;;
37157;SDS011;23050;51.776;22.638;2022-09-27T19:08:32;5.95;;;3.97;;
37157;SDS011;23050;51.776;22.638;2022-09-27T19:11:08;7.30;;;4.78;;
37157;SDS011;23050;51.776;22.638;2022-09-27T19:13:35;8.55;;;5.93;;
37157;SDS011;23050;51.776;22.638;2022-09-27T19:16:01;6.47;;;5.88;;
37157;SDS011;23050;51.776;22.638;2022-09-27T19:18:28;6.90;;;5.90;;
37157;SDS011;23050;51.776;22.638;2022-09-27T19:20:54;3.55;;;3.25;;
37157;SDS011;23050;51.776;22.638;2022-09-27T19:23:30;4.30;;;3.90;;
37157;SDS011;23050;51.776;22.638;2022-09-27T19:26:00;4.00;;;3.33;;
37157;SDS011;23050;51.776;22.638;2022-09-27T19:28:27;13.75;;;3.78;;
37157;SDS011;23050;51.776;22.638;2022-09-27T19:30:56;4.82;;;2.88;;
37157;SDS011;23050;51.776;22.638;2022-09-27T19:33:22;1.67;;;1.58;;
37157;SDS011;23050;51.776;22.638;2022-09-27T19:35:48;1.92;;;1.73;;
37157;SDS011;23050;51.776;22.638;2022-09-27T19:38:13;3.22;;;2.95;;
37157;SDS011;23050;51.776;22.638;2022-09-27T19:40:39;4.03;;;3.35;;
37157;SDS011;23050;51.776;22.638;2022-09-27T19:43:05;3.63;;;2.58;;
37157;SDS011;23050;51.776;22.638;2022-09-27T19:45:33;1.85;;;1.70;;
37157;SDS011;23050;51.776;22.638;2022-09-27T19:48:01;7.15;;;3.25;;
37157;SDS011;23050;51.776;22.638;2022-09-27T19:50:26;6.00;;;3.83;;
37157;SDS011;23050;51.776;22.638;2022-09-27T19:52:52;4.32;;;3.30;;
37157;SDS011;23050;51.776;22.638;2022-09-27T19:55:18;4.03;;;3.65;;
37157;SDS011;23050;51.776;22.638;2022-09-27T19:57:43;2.15;;;2.03;;
37157;SDS011;23050;51.776;22.638;2022-09-27T20:00:09;3.58;;;2.35;;
37157;SDS011;23050;51.776;22.638;2022-09-27T20:02:35;2.97;;;2.65;;
37157;SDS011;23050;51.776;22.638;2022-09-27T20:05:01;3.63;;;3.33;;
37157;SDS011;23050;51.776;22.638;2022-09-27T20:07:27;5.57;;;3.17;;
37157;SDS011;23050;51.776;22.638;2022-09-27T20:09:52;2.22;;;2.03;;
37157;SDS011;23050;51.776;22.638;2022-09-27T20:12:18;1.70;;;1.60;;
37157;SDS011;23050;51.776;22.638;2022-09-27T20:14:44;4.97;;;4.55;;
37157;SDS011;23050;51.776;22.638;2022-09-27T20:17:10;4.75;;;4.28;;
37157;SDS011;23050;51.776;22.638;2022-09-27T20:19:35;4.40;;;3.90;;
37157;SDS011;23050;51.776;22.638;2022-09-27T20:22:02;2.10;;;2.00;;
37157;SDS011;23050;51.776;22.638;2022-09-27T20:24:27;4.38;;;2.63;;
37157;SDS011;23050;51.776;22.638;2022-09-27T20:26:53;4.55;;;2.63;;
37157;SDS011;23050;51.776;22.638;2022-09-27T20:29:19;1.20;;;1.10;;
37157;SDS011;23050;51.776;22.638;2022-09-27T20:31:44;8.20;;;3.15;;
37157;SDS011;23050;51.776;22.638;2022-09-27T20:34:13;2.20;;;2.00;;
37157;SDS011;23050;51.776;22.638;2022-09-27T20:36:40;4.10;;;3.10;;
37157;SDS011;23050;51.776;22.638;2022-09-27T20:39:08;1.38;;;1.27;;
37157;SDS011;23050;51.776;22.638;2022-09-27T20:41:39;2.03;;;1.58;;
37157;SDS011;23050;51.776;22.638;2022-09-27T20:44:08;2.60;;;2.40;;
37157;SDS011;23050;51.776;22.638;2022-09-27T20:46:35;2.33;;;2.13;;
37157;SDS011;23050;51.776;22.638;2022-09-27T20:49:03;4.50;;;2.45;;
37157;SDS011;23050;51.776;22.638;2022-09-27T20:51:32;2.05;;;1.92;;
